Terminal Aerodrome Forecast
Issued by NWS Austin/San Antonio, TX

Home | Current Version | Previous Version | Text Only | Print | Product List | Glossary On
Versions: 1 2 3 4 5 6 7 8 9 10 11 12 13 14 15 16 17 18 19
170
FTUS44 KEWX 101157
TAFSAT
TAF
KSAT 101157Z 1012/1118 10003KT P6SM BKN021 OVC040
     FM101700 15005KT P6SM OVC015
     FM102300 14006KT 6SM BR VCSH OVC009
     FM110300 VRB03KT 3SM -DZ BR OVC004
     FM111400 24005KT P6SM OVC008=

USA.gov is the U.S. government's official web portal to all federal, state and local government web resources and services.